sensor_id;sensor_type;location;lat;lon;timestamp;pressure;altitude;pressure_sealevel;temperature;humidity
24996;BME280;13016;52.162;21.034;2023-03-22T00:01:36;100414.87;;;10.49;55.81
24996;BME280;13016;52.162;21.034;2023-03-22T00:04:01;100415.68;;;10.32;56.04
24996;BME280;13016;52.162;21.034;2023-03-22T00:06:27;100417.64;;;10.26;56.12
24996;BME280;13016;52.162;21.034;2023-03-22T00:08:52;100413.95;;;10.14;56.24
24996;BME280;13016;52.162;21.034;2023-03-22T00:11:20;100415.68;;;10.14;56.47
24996;BME280;13016;52.162;21.034;2023-03-22T00:13:46;100408.81;;;10.05;56.30
24996;BME280;13016;52.162;21.034;2023-03-22T00:16:13;100405.63;;;10.02;56.63
24996;BME280;13016;52.162;21.034;2023-03-22T00:18:39;100408.66;;;10.07;56.77
24996;BME280;13016;52.162;21.034;2023-03-22T00:21:08;100402.40;;;10.00;56.58
24996;BME280;13016;52.162;21.034;2023-03-22T00:23:37;100402.33;;;9.95;56.79
24996;BME280;13016;52.162;21.034;2023-03-22T00:26:03;100399.86;;;9.95;56.83
24996;BME280;13016;52.162;21.034;2023-03-22T00:28:38;100396.48;;;9.78;56.57
24996;BME280;13016;52.162;21.034;2023-03-22T00:31:04;100393.91;;;9.79;56.90
24996;BME280;13016;52.162;21.034;2023-03-22T00:33:30;100392.49;;;9.70;56.83
24996;BME280;13016;52.162;21.034;2023-03-22T00:36:02;100390.19;;;9.58;56.74
24996;BME280;13016;52.162;21.034;2023-03-22T00:38:29;100389.61;;;9.44;56.95
24996;BME280;13016;52.162;21.034;2023-03-22T00:40:54;100388.20;;;9.35;57.34
24996;BME280;13016;52.162;21.034;2023-03-22T00:43:19;100395.23;;;9.38;57.59
24996;BME280;13016;52.162;21.034;2023-03-22T00:45:45;100396.78;;;9.45;57.57
24996;BME280;13016;52.162;21.034;2023-03-22T00:48:11;100396.73;;;9.48;57.55
24996;BME280;13016;52.162;21.034;2023-03-22T00:50:38;100395.02;;;9.54;57.41
24996;BME280;13016;52.162;21.034;2023-03-22T00:53:03;100396.52;;;9.59;57.38
24996;BME280;13016;52.162;21.034;2023-03-22T00:55:30;100393.30;;;9.60;57.22
24996;BME280;13016;52.162;21.034;2023-03-22T00:57:59;100389.98;;;9.65;57.05
24996;BME280;13016;52.162;21.034;2023-03-22T01:00:25;100387.63;;;9.66;56.78
24996;BME280;13016;52.162;21.034;2023-03-22T01:02:50;100385.74;;;9.53;56.24
24996;BME280;13016;52.162;21.034;2023-03-22T01:05:16;100383.86;;;9.40;56.29
24996;BME280;13016;52.162;21.034;2023-03-22T01:07:42;100383.19;;;9.39;56.36
24996;BME280;13016;52.162;21.034;2023-03-22T01:10:11;100382.13;;;9.30;56.21
24996;BME280;13016;52.162;21.034;2023-03-22T01:12:37;100379.63;;;9.08;56.38
24996;BME280;13016;52.162;21.034;2023-03-22T01:15:05;100377.30;;;9.06;56.85
24996;BME280;13016;52.162;21.034;2023-03-22T01:17:30;100372.09;;;9.04;56.65
24996;BME280;13016;52.162;21.034;2023-03-22T01:19:56;100371.48;;;8.99;56.94
24996;BME280;13016;52.162;21.034;2023-03-22T01:22:21;100369.26;;;9.05;56.91
24996;BME280;13016;52.162;21.034;2023-03-22T01:24:48;100365.84;;;9.06;56.83
24996;BME280;13016;52.162;21.034;2023-03-22T01:27:14;100363.23;;;9.05;56.67
24996;BME280;13016;52.162;21.034;2023-03-22T01:29:43;100360.41;;;8.96;56.48
24996;BME280;13016;52.162;21.034;2023-03-22T01:32:28;100361.52;;;8.86;56.49
24996;BME280;13016;52.162;21.034;2023-03-22T01:34:54;100361.88;;;8.73;56.40
24996;BME280;13016;52.162;21.034;2023-03-22T01:37:19;100367.55;;;8.68;56.35
24996;BME280;13016;52.162;21.034;2023-03-22T01:39:44;100360.58;;;8.67;56.22
24996;BME280;13016;52.162;21.034;2023-03-22T01:42:21;100360.24;;;8.64;56.12
24996;BME280;13016;52.162;21.034;2023-03-22T01:47:39;100352.71;;;8.57;56.06
24996;BME280;13016;52.162;21.034;2023-03-22T01:50:07;100351.48;;;8.50;55.85
24996;BME280;13016;52.162;21.034;2023-03-22T01:52:34;100348.05;;;8.39;55.86
24996;BME280;13016;52.162;21.034;2023-03-22T01:55:01;100346.27;;;8.29;55.79
24996;BME280;13016;52.162;21.034;2023-03-22T01:57:26;100340.93;;;8.23;55.77
24996;BME280;13016;52.162;21.034;2023-03-22T01:59:55;100343.20;;;8.23;55.79
24996;BME280;13016;52.162;21.034;2023-03-22T02:02:21;100335.04;;;8.18;55.57
24996;BME280;13016;52.162;21.034;2023-03-22T02:04:48;100337.38;;;8.13;55.61
24996;BME280;13016;52.162;21.034;2023-03-22T02:07:14;100334.98;;;8.08;55.62
24996;BME280;13016;52.162;21.034;2023-03-22T02:09:41;100332.38;;;7.91;55.58
24996;BME280;13016;52.162;21.034;2023-03-22T02:27:02;100326.08;;;7.77;55.75
24996;BME280;13016;52.162;21.034;2023-03-22T02:29:42;100322.76;;;7.66;55.60
24996;BME280;13016;52.162;21.034;2023-03-22T02:41:25;100319.75;;;7.41;56.05
24996;BME280;13016;52.162;21.034;2023-03-22T02:47:08;100322.68;;;7.32;56.02
24996;BME280;13016;52.162;21.034;2023-03-22T02:49:37;100316.83;;;7.27;56.03
24996;BME280;13016;52.162;21.034;2023-03-22T02:52:11;100317.74;;;7.22;56.03
24996;BME280;13016;52.162;21.034;2023-03-22T02:54:44;100317.77;;;7.11;56.18
24996;BME280;13016;52.162;21.034;2023-03-22T02:57:23;100316.56;;;7.06;56.26
24996;BME280;13016;52.162;21.034;2023-03-22T02:59:50;100312.02;;;7.10;56.18
24996;BME280;13016;52.162;21.034;2023-03-22T03:02:18;100309.15;;;7.07;56.23
24996;BME280;13016;52.162;21.034;2023-03-22T03:04:47;100306.21;;;6.99;56.22
24996;BME280;13016;52.162;21.034;2023-03-22T03:07:18;100306.71;;;6.92;56.18
24996;BME280;13016;52.162;21.034;2023-03-22T03:09:53;100302.52;;;6.77;56.52
24996;BME280;13016;52.162;21.034;2023-03-22T03:12:21;100300.02;;;6.78;56.75
24996;BME280;13016;52.162;21.034;2023-03-22T03:14:50;100300.06;;;6.69;56.75
24996;BME280;13016;52.162;21.034;2023-03-22T03:20:15;100298.14;;;6.62;56.78
24996;BME280;13016;52.162;21.034;2023-03-22T03:28:16;100299.54;;;6.31;57.49
24996;BME280;13016;52.162;21.034;2023-03-22T03:30:55;100297.45;;;6.19;57.89
24996;BME280;13016;52.162;21.034;2023-03-22T03:33:24;100296.70;;;6.17;58.21
24996;BME280;13016;52.162;21.034;2023-03-22T03:35:55;100294.13;;;6.20;58.32
24996;BME280;13016;52.162;21.034;2023-03-22T03:38:26;100296.40;;;6.12;58.38
24996;BME280;13016;52.162;21.034;2023-03-22T03:40:56;100294.59;;;6.13;58.49
24996;BME280;13016;52.162;21.034;2023-03-22T03:43:25;100292.86;;;6.00;58.61
24996;BME280;13016;52.162;21.034;2023-03-22T03:45:51;100296.75;;;6.04;58.90
24996;BME280;13016;52.162;21.034;2023-03-22T03:48:20;100296.24;;;6.07;59.01
24996;BME280;13016;52.162;21.034;2023-03-22T03:50:47;100299.04;;;6.11;58.98
24996;BME280;13016;52.162;21.034;2023-03-22T03:53:13;100296.65;;;6.06;59.20
24996;BME280;13016;52.162;21.034;2023-03-22T03:55:39;100300.56;;;6.05;59.23
24996;BME280;13016;52.162;21.034;2023-03-22T03:58:05;100295.71;;;6.15;59.46
24996;BME280;13016;52.162;21.034;2023-03-22T04:00:31;100290.61;;;6.12;59.38
24996;BME280;13016;52.162;21.034;2023-03-22T04:02:58;100295.76;;;6.14;59.42
24996;BME280;13016;52.162;21.034;2023-03-22T04:05:23;100297.33;;;6.18;59.64
24996;BME280;13016;52.162;21.034;2023-03-22T04:07:48;100294.65;;;6.08;59.58
24996;BME280;13016;52.162;21.034;2023-03-22T04:10:14;100297.01;;;5.98;60.01
24996;BME280;13016;52.162;21.034;2023-03-22T04:12:39;100297.30;;;5.95;60.35
24996;BME280;13016;52.162;21.034;2023-03-22T04:15:04;100294.13;;;5.96;60.58
24996;BME280;13016;52.162;21.034;2023-03-22T04:17:31;100293.14;;;5.90;60.92
24996;BME280;13016;52.162;21.034;2023-03-22T04:19:56;100294.52;;;5.99;60.71
24996;BME280;13016;52.162;21.034;2023-03-22T04:22:22;100293.85;;;5.94;60.34
24996;BME280;13016;52.162;21.034;2023-03-22T04:24:48;100295.13;;;5.93;60.50
24996;BME280;13016;52.162;21.034;2023-03-22T04:27:13;100296.52;;;6.05;60.50
24996;BME280;13016;52.162;21.034;2023-03-22T04:29:38;100288.52;;;6.04;60.37
24996;BME280;13016;52.162;21.034;2023-03-22T04:32:04;100282.70;;;5.97;60.30
24996;BME280;13016;52.162;21.034;2023-03-22T04:34:29;100280.96;;;5.88;60.58
24996;BME280;13016;52.162;21.034;2023-03-22T04:36:54;100281.33;;;5.96;60.75
24996;BME280;13016;52.162;21.034;2023-03-22T04:39:19;100282.17;;;6.08;60.74
24996;BME280;13016;52.162;21.034;2023-03-22T04:41:45;100285.42;;;6.10;60.63
24996;BME280;13016;52.162;21.034;2023-03-22T04:44:10;100289.84;;;6.09;60.80
24996;BME280;13016;52.162;21.034;2023-03-22T04:46:35;100290.39;;;6.21;60.64
24996;BME280;13016;52.162;21.034;2023-03-22T04:49:00;100294.35;;;6.26;60.38
24996;BME280;13016;52.162;21.034;2023-03-22T04:51:26;100293.67;;;6.29;60.37
24996;BME280;13016;52.162;21.034;2023-03-22T04:53:53;100295.46;;;6.36;60.29
24996;BME280;13016;52.162;21.034;2023-03-22T04:56:19;100296.20;;;6.35;60.25
24996;BME280;13016;52.162;21.034;2023-03-22T04:58:44;100299.17;;;6.40;60.05
24996;BME280;13016;52.162;21.034;2023-03-22T05:01:11;100299.39;;;6.30;59.94
24996;BME280;13016;52.162;21.034;2023-03-22T05:03:39;100299.37;;;6.43;60.29
24996;BME280;13016;52.162;21.034;2023-03-22T05:06:08;100303.89;;;6.47;60.06
24996;BME280;13016;52.162;21.034;2023-03-22T05:08:34;100305.38;;;6.49;60.07
24996;BME280;13016;52.162;21.034;2023-03-22T05:11:21;100306.21;;;6.54;60.05
24996;BME280;13016;52.162;21.034;2023-03-22T05:14:07;100304.90;;;6.60;60.01
24996;BME280;13016;52.162;21.034;2023-03-22T05:16:33;100300.61;;;6.61;60.02
24996;BME280;13016;52.162;21.034;2023-03-22T05:18:58;100303.23;;;6.53;60.23
24996;BME280;13016;52.162;21.034;2023-03-22T05:21:25;100302.20;;;6.57;60.58
24996;BME280;13016;52.162;21.034;2023-03-22T05:23:50;100299.71;;;6.65;60.83
24996;BME280;13016;52.162;21.034;2023-03-22T05:26:15;100304.91;;;6.78;61.53
24996;BME280;13016;52.162;21.034;2023-03-22T05:28:42;100306.20;;;6.92;62.03
24996;BME280;13016;52.162;21.034;2023-03-22T05:31:08;100303.16;;;7.08;62.26
24996;BME280;13016;52.162;21.034;2023-03-22T05:34:16;100299.08;;;7.09;63.40
24996;BME280;13016;52.162;21.034;2023-03-22T05:36:41;100303.34;;;7.29;63.57
24996;BME280;13016;52.162;21.034;2023-03-22T05:39:11;100303.27;;;7.35;64.20
24996;BME280;13016;52.162;21.034;2023-03-22T05:41:42;100310.83;;;7.45;64.79
24996;BME280;13016;52.162;21.034;2023-03-22T05:44:09;100306.70;;;7.57;65.25
24996;BME280;13016;52.162;21.034;2023-03-22T05:46:34;100303.89;;;7.74;65.41
24996;BME280;13016;52.162;21.034;2023-03-22T05:49:04;100307.05;;;7.81;65.62
24996;BME280;13016;52.162;21.034;2023-03-22T05:51:29;100307.20;;;7.88;65.70
24996;BME280;13016;52.162;21.034;2023-03-22T05:53:54;100314.02;;;8.09;65.73
24996;BME280;13016;52.162;21.034;2023-03-22T05:59:05;100310.54;;;8.33;65.08
24996;BME280;13016;52.162;21.034;2023-03-22T06:01:34;100310.67;;;8.41;64.69
24996;BME280;13016;52.162;21.034;2023-03-22T06:04:04;100315.80;;;8.60;64.33
24996;BME280;13016;52.162;21.034;2023-03-22T06:18:41;100319.67;;;9.92;60.35
24996;BME280;13016;52.162;21.034;2023-03-22T06:21:11;100318.05;;;10.49;58.57
24996;BME280;13016;52.162;21.034;2023-03-22T06:23:36;100315.32;;;10.75;57.70
24996;BME280;13016;52.162;21.034;2023-03-22T06:26:04;100316.48;;;10.85;56.83
24996;BME280;13016;52.162;21.034;2023-03-22T06:28:29;100316.98;;;10.85;56.52
24996;BME280;13016;52.162;21.034;2023-03-22T06:31:12;100317.00;;;11.10;55.71
24996;BME280;13016;52.162;21.034;2023-03-22T06:33:42;100321.36;;;11.43;55.18
24996;BME280;13016;52.162;21.034;2023-03-22T06:36:10;100320.79;;;11.76;53.88
24996;BME280;13016;52.162;21.034;2023-03-22T06:38:35;100325.80;;;12.11;53.74
24996;BME280;13016;52.162;21.034;2023-03-22T06:41:04;100326.39;;;12.74;52.55
24996;BME280;13016;52.162;21.034;2023-03-22T06:43:32;100323.20;;;13.09;50.60
24996;BME280;13016;52.162;21.034;2023-03-22T06:46:00;100319.35;;;13.52;50.14
24996;BME280;13016;52.162;21.034;2023-03-22T06:52:19;100314.38;;;14.22;48.09
24996;BME280;13016;52.162;21.034;2023-03-22T06:56:13;100314.38;;;14.85;46.60
24996;BME280;13016;52.162;21.034;2023-03-22T06:58:38;100310.61;;;15.16;46.89
24996;BME280;13016;52.162;21.034;2023-03-22T07:01:04;100308.02;;;15.48;46.01
24996;BME280;13016;52.162;21.034;2023-03-22T07:03:29;100301.55;;;15.24;45.98
24996;BME280;13016;52.162;21.034;2023-03-22T07:06:07;100304.65;;;15.22;46.46
24996;BME280;13016;52.162;21.034;2023-03-22T07:08:33;100304.02;;;15.36;46.55
24996;BME280;13016;52.162;21.034;2023-03-22T07:11:04;100302.63;;;15.18;46.37
24996;BME280;13016;52.162;21.034;2023-03-22T07:13:31;100300.73;;;15.07;46.95
24996;BME280;13016;52.162;21.034;2023-03-22T07:16:01;100295.98;;;15.26;46.80
24996;BME280;13016;52.162;21.034;2023-03-22T07:18:36;100292.79;;;15.60;45.91
24996;BME280;13016;52.162;21.034;2023-03-22T07:21:02;100286.92;;;15.45;45.62
24996;BME280;13016;52.162;21.034;2023-03-22T07:23:43;100281.85;;;15.22;46.22
24996;BME280;13016;52.162;21.034;2023-03-22T07:26:09;100280.52;;;15.10;46.87
24996;BME280;13016;52.162;21.034;2023-03-22T07:28:34;100281.52;;;14.96;46.87
24996;BME280;13016;52.162;21.034;2023-03-22T07:31:02;100282.10;;;14.69;47.59
24996;BME280;13016;52.162;21.034;2023-03-22T07:33:31;100278.11;;;14.67;47.35
24996;BME280;13016;52.162;21.034;2023-03-22T07:35:56;100271.55;;;14.32;48.24
24996;BME280;13016;52.162;21.034;2023-03-22T07:38:21;100270.05;;;14.30;48.70
24996;BME280;13016;52.162;21.034;2023-03-22T07:40:52;100262.61;;;14.28;48.97
24996;BME280;13016;52.162;21.034;2023-03-22T07:43:20;100262.35;;;14.29;48.74
24996;BME280;13016;52.162;21.034;2023-03-22T07:45:48;100260.63;;;14.08;49.07
24996;BME280;13016;52.162;21.034;2023-03-22T07:48:14;100263.95;;;14.11;49.44
24996;BME280;13016;52.162;21.034;2023-03-22T07:50:40;100269.98;;;14.29;48.92
24996;BME280;13016;52.162;21.034;2023-03-22T07:53:07;100269.46;;;14.33;49.57
24996;BME280;13016;52.162;21.034;2023-03-22T07:55:33;100266.47;;;14.66;48.91
24996;BME280;13016;52.162;21.034;2023-03-22T07:58:15;100260.30;;;14.37;49.03
24996;BME280;13016;52.162;21.034;2023-03-22T08:00:57;100257.77;;;14.53;49.02
24996;BME280;13016;52.162;21.034;2023-03-22T08:03:22;100262.65;;;14.92;48.70
24996;BME280;13016;52.162;21.034;2023-03-22T08:05:47;100260.08;;;15.43;48.05
24996;BME280;13016;52.162;21.034;2023-03-22T08:08:13;100262.39;;;15.19;47.61
24996;BME280;13016;52.162;21.034;2023-03-22T08:10:39;100256.65;;;14.96;48.54
24996;BME280;13016;52.162;21.034;2023-03-22T08:16:11;100252.10;;;15.21;48.33
24996;BME280;13016;52.162;21.034;2023-03-22T08:19:06;100249.82;;;15.47;48.36
24996;BME280;13016;52.162;21.034;2023-03-22T08:21:54;100248.52;;;15.83;47.44
24996;BME280;13016;52.162;21.034;2023-03-22T08:28:02;100251.71;;;16.12;47.03
24996;BME280;13016;52.162;21.034;2023-03-22T08:30:28;100251.34;;;16.04;46.87
24996;BME280;13016;52.162;21.034;2023-03-22T08:32:53;100253.04;;;16.11;47.23
24996;BME280;13016;52.162;21.034;2023-03-22T08:35:19;100249.98;;;16.14;46.86
24996;BME280;13016;52.162;21.034;2023-03-22T08:37:44;100249.25;;;16.32;46.87
24996;BME280;13016;52.162;21.034;2023-03-22T08:40:10;100248.02;;;16.50;46.24
24996;BME280;13016;52.162;21.034;2023-03-22T08:42:35;100246.68;;;16.35;46.20
24996;BME280;13016;52.162;21.034;2023-03-22T08:45:01;100245.80;;;16.08;47.04
24996;BME280;13016;52.162;21.034;2023-03-22T08:47:28;100245.44;;;15.92;47.48
24996;BME280;13016;52.162;21.034;2023-03-22T08:49:53;100245.51;;;15.99;47.48
24996;BME280;13016;52.162;21.034;2023-03-22T08:52:19;100239.83;;;15.78;48.16
24996;BME280;13016;52.162;21.034;2023-03-22T08:54:44;100236.66;;;15.99;47.53
24996;BME280;13016;52.162;21.034;2023-03-22T08:57:11;100237.92;;;16.13;47.61
24996;BME280;13016;52.162;21.034;2023-03-22T08:59:37;100242.41;;;16.39;47.23
24996;BME280;13016;52.162;21.034;2023-03-22T09:02:02;100237.70;;;16.21;47.10
24996;BME280;13016;52.162;21.034;2023-03-22T09:04:27;100238.17;;;15.92;47.73
24996;BME280;13016;52.162;21.034;2023-03-22T09:06:52;100236.44;;;15.66;48.43
24996;BME280;13016;52.162;21.034;2023-03-22T09:09:18;100237.27;;;15.81;48.50
24996;BME280;13016;52.162;21.034;2023-03-22T09:12:03;100234.84;;;15.85;48.16
24996;BME280;13016;52.162;21.034;2023-03-22T09:14:37;100232.86;;;15.43;49.05
24996;BME280;13016;52.162;21.034;2023-03-22T09:17:03;100237.52;;;15.72;48.97
24996;BME280;13016;52.162;21.034;2023-03-22T09:19:29;100236.64;;;15.85;48.57
24996;BME280;13016;52.162;21.034;2023-03-22T09:21:59;100231.41;;;15.48;49.34
24996;BME280;13016;52.162;21.034;2023-03-22T09:24:42;100228.05;;;15.35;49.81
24996;BME280;13016;52.162;21.034;2023-03-22T09:27:08;100224.10;;;15.54;49.40
24996;BME280;13016;52.162;21.034;2023-03-22T09:29:33;100221.33;;;15.32;49.98
24996;BME280;13016;52.162;21.034;2023-03-22T09:31:58;100217.44;;;15.51;49.82
24996;BME280;13016;52.162;21.034;2023-03-22T09:34:24;100218.20;;;15.86;49.16
24996;BME280;13016;52.162;21.034;2023-03-22T09:36:49;100212.90;;;15.73;49.24
24996;BME280;13016;52.162;21.034;2023-03-22T09:39:23;100210.65;;;15.95;48.88
24996;BME280;13016;52.162;21.034;2023-03-22T09:42:01;100208.51;;;15.95;48.85
24996;BME280;13016;52.162;21.034;2023-03-22T09:44:56;100205.75;;;15.96;48.85
24996;BME280;13016;52.162;21.034;2023-03-22T09:50:15;100201.80;;;15.94;48.25
24996;BME280;13016;52.162;21.034;2023-03-22T09:52:44;100204.35;;;15.85;48.38
24996;BME280;13016;52.162;21.034;2023-03-22T09:55:33;100199.48;;;16.03;48.24
24996;BME280;13016;52.162;21.034;2023-03-22T09:58:20;100196.55;;;16.18;47.97
24996;BME280;13016;52.162;21.034;2023-03-22T10:06:35;100168.38;;;15.59;48.69
24996;BME280;13016;52.162;21.034;2023-03-22T10:14:39;100179.45;;;16.15;48.04
24996;BME280;13016;52.162;21.034;2023-03-22T10:17:11;100182.11;;;16.47;47.77
24996;BME280;13016;52.162;21.034;2023-03-22T10:20:00;100182.63;;;16.45;47.71
24996;BME280;13016;52.162;21.034;2023-03-22T10:22:35;100183.70;;;16.25;47.65
24996;BME280;13016;52.162;21.034;2023-03-22T10:25:18;100180.77;;;16.22;48.10
24996;BME280;13016;52.162;21.034;2023-03-22T10:27:48;100178.36;;;16.49;48.16
24996;BME280;13016;52.162;21.034;2023-03-22T10:30:26;100173.20;;;16.67;47.42
24996;BME280;13016;52.162;21.034;2023-03-22T10:33:07;100177.68;;;16.32;47.79
24996;BME280;13016;52.162;21.034;2023-03-22T10:35:39;100175.16;;;16.41;47.62
24996;BME280;13016;52.162;21.034;2023-03-22T10:38:23;100170.67;;;16.43;47.49
24996;BME280;13016;52.162;21.034;2023-03-22T10:40:54;100173.92;;;16.51;47.66
24996;BME280;13016;52.162;21.034;2023-03-22T10:43:37;100175.14;;;16.25;47.92
24996;BME280;13016;52.162;21.034;2023-03-22T10:46:13;100173.34;;;16.41;48.12
24996;BME280;13016;52.162;21.034;2023-03-22T10:51:28;100171.14;;;16.03;48.41
24996;BME280;13016;52.162;21.034;2023-03-22T10:53:53;100172.01;;;16.30;47.98
24996;BME280;13016;52.162;21.034;2023-03-22T10:56:20;100172.50;;;16.25;47.83
24996;BME280;13016;52.162;21.034;2023-03-22T10:58:50;100174.93;;;16.57;47.61
24996;BME280;13016;52.162;21.034;2023-03-22T11:01:34;100171.55;;;16.53;47.21
24996;BME280;13016;52.162;21.034;2023-03-22T11:04:11;100167.98;;;16.48;47.58
24996;BME280;13016;52.162;21.034;2023-03-22T11:06:53;100165.41;;;16.68;47.45
24996;BME280;13016;52.162;21.034;2023-03-22T11:09:22;100162.07;;;16.97;46.99
24996;BME280;13016;52.162;21.034;2023-03-22T11:11:56;100154.51;;;16.96;47.03
24996;BME280;13016;52.162;21.034;2023-03-22T11:14:34;100153.87;;;16.95;47.12
24996;BME280;13016;52.162;21.034;2023-03-22T11:19:35;100148.57;;;17.16;46.75
24996;BME280;13016;52.162;21.034;2023-03-22T11:25:14;100157.19;;;17.50;46.23
24996;BME280;13016;52.162;21.034;2023-03-22T11:30:36;100147.67;;;16.91;46.69
24996;BME280;13016;52.162;21.034;2023-03-22T11:35:36;100140.33;;;16.87;46.80
24996;BME280;13016;52.162;21.034;2023-03-22T11:38:14;100141.04;;;17.01;46.69
24996;BME280;13016;52.162;21.034;2023-03-22T11:40:52;100143.70;;;17.19;46.29
24996;BME280;13016;52.162;21.034;2023-03-22T11:43:26;100135.88;;;17.30;46.07
24996;BME280;13016;52.162;21.034;2023-03-22T11:45:59;100136.27;;;17.12;45.98
24996;BME280;13016;52.162;21.034;2023-03-22T11:48:28;100134.17;;;17.06;46.47
24996;BME280;13016;52.162;21.034;2023-03-22T11:51:05;100131.58;;;17.13;46.83
24996;BME280;13016;52.162;21.034;2023-03-22T11:53:44;100131.11;;;17.18;46.94
24996;BME280;13016;52.162;21.034;2023-03-22T11:56:25;100128.02;;;16.99;47.20
24996;BME280;13016;52.162;21.034;2023-03-22T11:59:16;100121.14;;;16.89;46.87
24996;BME280;13016;52.162;21.034;2023-03-22T12:01:56;100122.92;;;17.04;47.20
24996;BME280;13016;52.162;21.034;2023-03-22T12:04:28;100120.80;;;17.14;46.92
24996;BME280;13016;52.162;21.034;2023-03-22T12:07:02;100117.51;;;17.24;46.50
24996;BME280;13016;52.162;21.034;2023-03-22T12:09:42;100116.55;;;17.11;47.61
24996;BME280;13016;52.162;21.034;2023-03-22T12:12:25;100113.77;;;17.19;47.71
24996;BME280;13016;52.162;21.034;2023-03-22T12:15:16;100106.58;;;17.25;47.39
24996;BME280;13016;52.162;21.034;2023-03-22T12:17:47;100099.05;;;17.14;47.98
24996;BME280;13016;52.162;21.034;2023-03-22T12:20:32;100096.73;;;17.48;47.74
24996;BME280;13016;52.162;21.034;2023-03-22T12:23:07;100093.19;;;17.80;47.17
24996;BME280;13016;52.162;21.034;2023-03-22T12:25:41;100089.80;;;17.82;46.05
24996;BME280;13016;52.162;21.034;2023-03-22T12:31:44;100083.78;;;17.59;46.51
24996;BME280;13016;52.162;21.034;2023-03-22T12:34:25;100081.90;;;17.91;45.87
24996;BME280;13016;52.162;21.034;2023-03-22T12:36:55;100075.16;;;17.93;45.38
24996;BME280;13016;52.162;21.034;2023-03-22T12:39:34;100072.36;;;18.05;44.95
24996;BME280;13016;52.162;21.034;2023-03-22T12:42:40;100072.13;;;17.83;44.64
24996;BME280;13016;52.162;21.034;2023-03-22T12:45:20;100072.30;;;17.69;44.71
24996;BME280;13016;52.162;21.034;2023-03-22T12:48:49;100069.14;;;17.74;44.64
24996;BME280;13016;52.162;21.034;2023-03-22T12:50:57;100062.40;;;17.47;45.20
24996;BME280;13016;52.162;21.034;2023-03-22T12:53:35;100064.45;;;17.32;45.45
24996;BME280;13016;52.162;21.034;2023-03-22T12:56:03;100065.34;;;17.22;45.86
24996;BME280;13016;52.162;21.034;2023-03-22T12:58:34;100068.98;;;17.57;45.25
24996;BME280;13016;52.162;21.034;2023-03-22T13:01:20;100070.17;;;17.18;45.93
24996;BME280;13016;52.162;21.034;2023-03-22T13:03:52;100061.85;;;17.50;45.32
24996;BME280;13016;52.162;21.034;2023-03-22T13:06:54;100057.09;;;17.19;45.83
24996;BME280;13016;52.162;21.034;2023-03-22T13:09:41;100053.59;;;17.67;45.28
24996;BME280;13016;52.162;21.034;2023-03-22T13:12:34;100047.52;;;17.72;44.82
24996;BME280;13016;52.162;21.034;2023-03-22T13:15:30;100043.44;;;18.02;44.58
24996;BME280;13016;52.162;21.034;2023-03-22T13:17:56;100044.17;;;18.23;44.22
24996;BME280;13016;52.162;21.034;2023-03-22T13:20:31;100047.44;;;18.30;44.02
24996;BME280;13016;52.162;21.034;2023-03-22T13:23:03;100042.90;;;18.12;44.10
24996;BME280;13016;52.162;21.034;2023-03-22T13:25:57;100040.73;;;17.93;44.66
24996;BME280;13016;52.162;21.034;2023-03-22T13:28:32;100033.20;;;17.79;44.93
24996;BME280;13016;52.162;21.034;2023-03-22T13:31:00;100032.42;;;18.01;44.84
24996;BME280;13016;52.162;21.034;2023-03-22T13:33:33;100031.29;;;17.56;45.02
24996;BME280;13016;52.162;21.034;2023-03-22T13:36:23;100026.67;;;17.67;45.00
24996;BME280;13016;52.162;21.034;2023-03-22T13:38:59;100022.20;;;17.44;45.25
24996;BME280;13016;52.162;21.034;2023-03-22T13:41:32;100027.64;;;17.84;44.81
24996;BME280;13016;52.162;21.034;2023-03-22T13:44:17;100024.39;;;18.12;44.36
24996;BME280;13016;52.162;21.034;2023-03-22T13:46:51;100026.70;;;18.41;44.04
24996;BME280;13016;52.162;21.034;2023-03-22T13:49:33;100030.05;;;18.52;43.63
24996;BME280;13016;52.162;21.034;2023-03-22T13:52:23;100025.81;;;18.33;43.76
24996;BME280;13016;52.162;21.034;2023-03-22T13:54:54;100022.40;;;18.52;43.66
24996;BME280;13016;52.162;21.034;2023-03-22T13:57:58;100017.14;;;18.35;44.01
24996;BME280;13016;52.162;21.034;2023-03-22T14:00:34;100012.45;;;18.31;44.08
24996;BME280;13016;52.162;21.034;2023-03-22T14:03:19;100009.91;;;18.14;44.01
24996;BME280;13016;52.162;21.034;2023-03-22T14:06:08;100008.48;;;18.10;44.43
24996;BME280;13016;52.162;21.034;2023-03-22T14:08:37;100004.20;;;18.19;44.00
24996;BME280;13016;52.162;21.034;2023-03-22T14:11:29;100003.84;;;18.17;44.32
24996;BME280;13016;52.162;21.034;2023-03-22T14:14:11;100002.12;;;17.97;44.49
24996;BME280;13016;52.162;21.034;2023-03-22T14:17:00;100007.92;;;17.80;45.34
24996;BME280;13016;52.162;21.034;2023-03-22T14:19:34;100007.52;;;18.04;44.72
24996;BME280;13016;52.162;21.034;2023-03-22T14:22:04;100010.42;;;18.10;44.77
24996;BME280;13016;52.162;21.034;2023-03-22T14:24:38;100013.33;;;18.39;44.22
24996;BME280;13016;52.162;21.034;2023-03-22T14:27:05;100012.21;;;18.38;44.24
24996;BME280;13016;52.162;21.034;2023-03-22T14:29:42;100011.45;;;18.49;44.31
24996;BME280;13016;52.162;21.034;2023-03-22T14:32:23;100010.98;;;18.57;43.89
24996;BME280;13016;52.162;21.034;2023-03-22T14:34:55;100003.08;;;18.20;44.44
24996;BME280;13016;52.162;21.034;2023-03-22T14:37:26;100001.77;;;18.35;44.50
24996;BME280;13016;52.162;21.034;2023-03-22T14:39:56;99998.91;;;18.53;44.25
24996;BME280;13016;52.162;21.034;2023-03-22T14:42:25;99995.98;;;18.64;43.83